^^
Station Historical Data
Daily Summary for March 30, 2017 Units:  English    Metric   Both
« Previous Day
Next Day »
Daily Weekly Monthly Yearly Custom
  High: Low: Average:
Temperature: 46.1 °F 34.0 °F 41.2 °F
Dew Point: 36.7 °F 25.6 °F 28.1 °F
Humidity: 88 % 48 % 60 %
Wind Speed: 5.2 mph 0.0 mph 0.6 mph
Wind Gust: 9.2 mph - -
Wind:- - SE
Pressure: 30.31 in 30.09 in -
Precipitation: 0.15 in    
Historical Graphs
 
 
Tabular Data for March 30, 2017
Time Temperature Dew Point Pressure Wind Wind Speed Wind Gust Humidity Rainfall Rate (Hourly) solar Conditions
00:00 40.8 °F 27.2 °F 30.26 in NNE 3.0 mph 4.6 mph 58 % 0.00 in 0.0 W/m2 FEW
00:05 40.6 °F 27.0 °F 30.26 in NNE 3.5 mph 5.0 mph 58 % 0.00 in 0.0 W/m2 FEW
00:10 40.5 °F 27.3 °F 30.25 in NNE 2.6 mph 4.6 mph 59 % 0.00 in 0.0 W/m2 FEW
00:15 40.4 °F 27.2 °F 30.25 in NNE 4.8 mph 8.1 mph 59 % 0.00 in 0.0 W/m2 FEW
00:20 40.3 °F 27.1 °F 30.26 in NNE 3.9 mph 8.1 mph 59 % 0.00 in 0.0 W/m2 FEW
00:25 40.1 °F 26.9 °F 30.26 in Calm     59 % 0.00 in 0.0 W/m2 FEW
00:30 39.7 °F 26.9 °F 30.26 in NNE 0.7 mph 2.3 mph 60 % 0.00 in 0.0 W/m2 FEW
00:35 39.5 °F 27.2 °F 30.25 in North 3.3 mph 8.1 mph 61 % 0.00 in 0.0 W/m2 FEW
00:40 39.4 °F 27.1 °F 30.25 in NNE 1.8 mph 4.6 mph 61 % 0.00 in 0.0 W/m2 FEW
00:45 39.3 °F 27.0 °F 30.25 in NNE 2.0 mph 3.5 mph 61 % 0.00 in 0.0 W/m2 FEW
00:50 39.2 °F 26.9 °F 30.24 in Calm   1.2 mph 61 % 0.00 in 0.0 W/m2 FEW
00:55 39.0 °F 27.1 °F 30.24 in NNE 2.1 mph 3.5 mph 62 % 0.00 in 0.0 W/m2 FEW
01:00 39.0 °F 27.1 °F 30.24 in North 1.7 mph 3.5 mph 62 % 0.00 in 0.0 W/m2 FEW
01:05 38.8 °F 26.9 °F 30.25 in Calm     62 % 0.00 in 0.0 W/m2 FEW
01:10 38.8 °F 26.9 °F 30.25 in Calm   3.5 mph 62 % 0.00 in 0.0 W/m2 FEW
01:15 38.7 °F 26.8 °F 30.25 in North 2.4 mph 3.5 mph 62 % 0.00 in 0.0 W/m2 FEW
01:20 38.6 °F 26.7 °F 30.25 in NNE 0.7 mph 3.5 mph 62 % 0.00 in 0.0 W/m2 FEW
01:25 38.5 °F 26.6 °F 30.25 in NNE 0.1 mph 2.3 mph 62 % 0.00 in 0.0 W/m2 FEW
01:30 38.3 °F 26.4 °F 30.24 in NNE 3.6 mph 4.6 mph 62 % 0.00 in 0.0 W/m2 FEW
01:35 38.1 °F 26.6 °F 30.24 in NNE 2.0 mph 3.5 mph 63 % 0.00 in 0.0 W/m2 FEW
01:40 37.9 °F 26.4 °F 30.24 in NNE 1.5 mph 3.5 mph 63 % 0.00 in 0.0 W/m2 FEW
01:45 37.9 °F 26.4 °F 30.24 in NNE 2.3 mph 4.0 mph 63 % 0.00 in 0.0 W/m2 FEW
01:50 38.0 °F 26.1 °F 30.24 in NNE 1.1 mph 3.5 mph 62 % 0.00 in 0.0 W/m2 FEW
01:55 37.7 °F 26.2 °F 30.24 in NNE 0.1 mph 2.3 mph 63 % 0.00 in 0.0 W/m2 FEW
02:01 37.7 °F 26.2 °F 30.24 in Calm   1.2 mph 63 % 0.00 in 0.0 W/m2 FEW
02:06 37.6 °F 26.1 °F 30.24 in Calm     63 % 0.00 in 0.0 W/m2 FEW
02:11 37.4 °F 25.9 °F 30.24 in Calm     63 % 0.00 in 0.0 W/m2 FEW
02:16 37.6 °F 26.1 °F 30.23 in Calm     63 % 0.00 in 0.0 W/m2 FEW
02:21 37.5 °F 26.0 °F 30.23 in Calm     63 % 0.00 in 0.0 W/m2 FEW
02:26 37.2 °F 25.8 °F 30.23 in Calm     63 % 0.00 in 0.0 W/m2 FEW
02:31 36.8 °F 25.8 °F 30.23 in Calm     64 % 0.00 in 0.0 W/m2 FEW
02:36 36.7 °F 26.0 °F 30.23 in Calm     65 % 0.00 in 0.0 W/m2 FEW
02:41 36.9 °F 26.2 °F 30.24 in Calm     65 % 0.00 in 0.0 W/m2 FEW
02:46 36.6 °F 25.9 °F 30.24 in Calm     65 % 0.00 in 0.0 W/m2 FEW
02:51 36.7 °F 26.0 °F 30.25 in Calm     65 % 0.00 in 0.0 W/m2 FEW
02:56 36.4 °F 26.1 °F 30.25 in Calm     66 % 0.00 in 0.0 W/m2 FEW
03:01 35.8 °F 25.9 °F 30.26 in Calm     67 % 0.00 in 0.0 W/m2 FEW
03:06 35.6 °F 26.1 °F 30.26 in Calm     68 % 0.00 in 0.0 W/m2 FEW
03:11 35.2 °F 26.0 °F 30.26 in Calm     69 % 0.00 in 0.0 W/m2 FEW
03:16 35.5 °F 26.3 °F 30.25 in Calm     69 % 0.00 in 0.0 W/m2 FEW
03:21 35.6 °F 26.4 °F 30.25 in Calm     69 % 0.00 in 0.0 W/m2 FEW
03:26 35.7 °F 26.5 °F 30.25 in Calm     69 % 0.00 in 0.0 W/m2 FEW
03:31 35.8 °F 26.3 °F 30.25 in Calm     68 % 0.00 in 0.0 W/m2 FEW
03:36 35.9 °F 26.4 °F 30.25 in Calm     68 % 0.00 in 0.0 W/m2 FEW
03:41 35.9 °F 26.4 °F 30.25 in Calm     68 % 0.00 in 0.0 W/m2 FEW
03:46 35.9 °F 26.4 °F 30.25 in Calm     68 % 0.00 in 0.0 W/m2 FEW
03:51 35.8 °F 26.3 °F 30.25 in Calm     68 % 0.00 in 0.0 W/m2 FEW
03:54 35.8 °F 26.3 °F 30.25 in Calm     68 % 0.00 in 0.0 W/m2 FEW
03:59 36.0 °F 26.1 °F 30.25 in Calm     67 % 0.00 in 0.0 W/m2 FEW
04:04 36.2 °F 26.3 °F 30.25 in Calm     67 % 0.00 in 0.0 W/m2 FEW
04:09 36.2 °F 26.3 °F 30.25 in NNE 1.8 mph 4.6 mph 67 % 0.00 in 0.0 W/m2 FEW
04:14 36.4 °F 26.5 °F 30.26 in Calm     67 % 0.00 in 0.0 W/m2 FEW
04:19 36.5 °F 26.6 °F 30.25 in NNE 1.3 mph 3.5 mph 67 % 0.00 in 0.0 W/m2 FEW
04:24 36.5 °F 26.6 °F 30.24 in NNE 2.7 mph 4.6 mph 67 % 0.00 in 0.0 W/m2 FEW
04:29 36.4 °F 26.1 °F 30.24 in North 3.5 mph 4.6 mph 66 % 0.00 in 0.0 W/m2 FEW
04:34 36.4 °F 26.5 °F 30.23 in NNE 5.2 mph 9.2 mph 67 % 0.00 in 0.0 W/m2 FEW
04:39 36.3 °F 26.4 °F 30.23 in NNE 1.5 mph 5.0 mph 67 % 0.00 in 0.0 W/m2 FEW
04:44 36.3 °F 26.4 °F 30.24 in NNE 0.3 mph 3.5 mph 67 % 0.00 in 0.0 W/m2 FEW
04:49 36.3 °F 26.4 °F 30.23 in NE 4.1 mph 6.0 mph 67 % 0.00 in 0.0 W/m2 FEW
04:54 36.3 °F 26.4 °F 30.23 in NNE 3.8 mph 5.0 mph 67 % 0.00 in 0.0 W/m2 FEW
04:59 36.3 °F 26.4 °F 30.23 in NNE 4.8 mph 5.8 mph 67 % 0.00 in 0.0 W/m2 FEW
05:04 36.3 °F 26.4 °F 30.23 in NNE 4.8 mph 8.1 mph 67 % 0.00 in 0.0 W/m2 FEW
05:09 36.2 °F 26.3 °F 30.23 in NNE 3.3 mph 4.6 mph 67 % 0.00 in 0.0 W/m2 FEW
05:14 36.1 °F 26.2 °F 30.23 in NNE 4.2 mph 9.2 mph 67 % 0.00 in 0.0 W/m2 FEW
05:19 36.0 °F 26.1 °F 30.23 in Calm     67 % 0.00 in 0.0 W/m2 FEW
05:24 36.0 °F 26.1 °F 30.25 in Calm   3.5 mph 67 % 0.00 in 0.0 W/m2 FEW
05:29 36.0 °F 26.1 °F 30.25 in Calm     67 % 0.00 in 0.0 W/m2 FEW
05:34 36.0 °F 26.1 °F 30.25 in Calm     67 % 0.00 in 0.0 W/m2 FEW
05:39 36.0 °F 25.7 °F 30.26 in Calm     66 % 0.00 in 0.0 W/m2 FEW
05:44 35.9 °F 25.6 °F 30.26 in Calm     66 % 0.00 in 0.0 W/m2 FEW
05:49 35.8 °F 25.9 °F 30.26 in NNE 0.1 mph 1.0 mph 67 % 0.00 in 0.0 W/m2 FEW
05:55 35.7 °F 25.8 °F 30.26 in Calm     67 % 0.00 in 0.0 W/m2 FEW
06:00 35.6 °F 25.7 °F 30.27 in Calm     67 % 0.00 in 0.0 W/m2 FEW
06:05 35.4 °F 25.9 °F 30.27 in Calm     68 % 0.00 in 0.0 W/m2 FEW
06:10 35.2 °F 25.7 °F 30.28 in South 0.5 mph 3.0 mph 68 % 0.00 in 0.0 W/m2 FEW
06:15 35.0 °F 25.9 °F 30.29 in Calm     69 % 0.00 in 0.0 W/m2 FEW
06:20 34.8 °F 26.0 °F 30.29 in Calm     70 % 0.00 in 0.0 W/m2 FEW
06:25 34.7 °F 25.9 °F 30.29 in Calm     70 % 0.00 in 0.0 W/m2 FEW
06:30 34.7 °F 25.9 °F 30.29 in Calm     70 % 0.00 in 0.0 W/m2 FEW
06:35 34.4 °F 25.7 °F 30.29 in Calm     70 % 0.00 in 0.0 W/m2 OVC
06:40 34.0 °F 25.6 °F 30.30 in Calm     71 % 0.00 in 0.0 W/m2 OVC
06:45 34.0 °F 25.9 °F 30.29 in Calm     72 % 0.00 in 7.0 W/m2 FEW
06:50 34.2 °F 26.1 °F 30.29 in Calm     72 % 0.00 in 11.0 W/m2 FEW
06:55 34.1 °F 26.0 °F 30.29 in Calm     72 % 0.00 in 16.0 W/m2 OVC
07:00 34.2 °F 26.1 °F 30.29 in Calm     72 % 0.00 in 18.0 W/m2 FEW
07:05 34.2 °F 26.4 °F 30.29 in Calm     73 % 0.00 in 16.0 W/m2 FEW
07:10 34.6 °F 26.5 °F 30.29 in Calm     72 % 0.00 in 18.0 W/m2 FEW
07:15 34.9 °F 26.8 °F 30.29 in Calm     72 % 0.00 in 18.0 W/m2 FEW
07:20 34.7 °F 26.6 °F 30.29 in Calm     72 % 0.00 in 19.0 W/m2 FEW
07:25 34.9 °F 26.8 °F 30.30 in SSW 2.8 mph 3.5 mph 72 % 0.00 in 26.0 W/m2 FEW
07:30 34.7 °F 26.6 °F 30.29 in Calm     72 % 0.00 in 37.0 W/m2 FEW
07:35 35.0 °F 27.2 °F 30.29 in Calm     73 % 0.00 in 44.0 W/m2 FEW
07:40 35.5 °F 27.4 °F 30.29 in Calm     72 % 0.00 in 54.0 W/m2 FEW
07:45 35.8 °F 27.7 °F 30.29 in Calm     72 % 0.00 in 44.0 W/m2 SCT
07:50 35.8 °F 27.3 °F 30.29 in Calm     71 % 0.00 in 46.0 W/m2 BKN
07:55 36.1 °F 27.6 °F 30.29 in Calm     71 % 0.00 in 63.0 W/m2 SCT
08:00 36.6 °F 27.7 °F 30.30 in Calm     70 % 0.00 in 77.0 W/m2 SCT
08:05 36.9 °F 27.7 °F 30.30 in Calm     69 % 0.00 in 86.0 W/m2 SCT
08:10 37.1 °F 27.2 °F 30.30 in Calm     67 % 0.00 in 95.0 W/m2 SCT
08:15 37.4 °F 27.8 °F 30.30 in Calm     68 % 0.00 in 114.0 W/m2 SCT
08:20 37.3 °F 27.7 °F 30.31 in Calm     68 % 0.00 in 139.0 W/m2 FEW
08:25 37.5 °F 27.9 °F 30.30 in Calm     68 % 0.00 in 162.0 W/m2 FEW
08:30 37.6 °F 28.0 °F 30.30 in Calm     68 % 0.00 in 188.0 W/m2 CLR
08:35 37.8 °F 28.2 °F 30.30 in Calm     68 % 0.00 in 156.0 W/m2 FEW
08:40 38.0 °F 27.6 °F 30.31 in Calm     66 % 0.00 in 155.0 W/m2 SCT
08:45 38.1 °F 27.7 °F 30.30 in Calm     66 % 0.00 in 142.0 W/m2 SCT
08:50 38.1 °F 27.7 °F 30.29 in Calm     66 % 0.00 in 141.0 W/m2 SCT
08:55 38.3 °F 26.8 °F 30.29 in Calm     63 % 0.00 in 186.0 W/m2 SCT
09:00 38.7 °F 26.4 °F 30.29 in Calm     61 % 0.00 in 176.0 W/m2 SCT
09:05 39.5 °F 26.8 °F 30.29 in South 0.1 mph   60 % 0.00 in 482.0 W/m2 CLR
09:10 39.3 °F 26.2 °F 30.30 in Calm     59 % 0.00 in 464.0 W/m2 CLR
09:15 39.6 °F 26.0 °F 30.29 in Calm     58 % 0.00 in 501.0 W/m2 CLR
09:20 40.1 °F 26.1 °F 30.28 in Calm     57 % 0.00 in 543.0 W/m2 CLR
09:25 39.9 °F 25.9 °F 30.28 in Calm     57 % 0.00 in 195.0 W/m2 SCT
09:30 39.9 °F 25.9 °F 30.28 in SSE 0.2 mph 2.3 mph 57 % 0.00 in 183.0 W/m2 BKN
09:35 39.8 °F 26.2 °F 30.27 in Calm     58 % 0.00 in 251.0 W/m2 SCT
09:40 40.0 °F 26.4 °F 30.26 in NNE 0.5 mph 4.0 mph 58 % 0.00 in 230.0 W/m2 SCT
09:45 40.4 °F 26.8 °F 30.27 in NNE 0.6 mph   58 % 0.00 in 255.0 W/m2 SCT
09:50 40.4 °F 26.4 °F 30.27 in Calm     57 % 0.00 in 243.0 W/m2 SCT
09:55 40.7 °F 27.5 °F 30.27 in Calm     59 % 0.00 in 687.0 W/m2 SCT
10:00 41.3 °F 26.8 °F 30.28 in NE 0.2 mph 1.2 mph 56 % 0.00 in 773.0 W/m2 CLR
10:05 41.4 °F 26.9 °F 30.28 in Calm     56 % 0.00 in 652.0 W/m2 CLR
10:10 41.1 °F 25.7 °F 30.28 in WSW 0.1 mph 1.2 mph 54 % 0.00 in 805.0 W/m2 CLR
10:15 41.3 °F 25.9 °F 30.28 in WSW 0.4 mph 1.2 mph 54 % 0.00 in 443.0 W/m2 CLR
10:20 42.4 °F 26.5 °F 30.28 in NW 0.4 mph 2.0 mph 53 % 0.00 in 373.0 W/m2 FEW
10:25 42.3 °F 26.4 °F 30.28 in Calm   1.2 mph 53 % 0.00 in 322.0 W/m2 SCT
10:31 41.7 °F 26.3 °F 30.28 in Calm     54 % 0.00 in 527.0 W/m2 FEW
10:36 43.1 °F 28.0 °F 30.28 in NW 0.5 mph   55 % 0.00 in 612.0 W/m2 CLR
10:41 43.8 °F 26.3 °F 30.27 in Calm     50 % 0.00 in 717.0 W/m2 CLR
10:46 43.4 °F 26.5 °F 30.27 in SW 3.3 mph 5.0 mph 51 % 0.00 in 731.0 W/m2 CLR
10:51 43.4 °F 26.5 °F 30.27 in SW 0.5 mph 3.0 mph 51 % 0.00 in 353.0 W/m2 CLR
10:56 43.4 °F 26.0 °F 30.26 in SW 1.7 mph 3.5 mph 50 % 0.00 in 294.0 W/m2 BKN
11:01 43.3 °F 26.4 °F 30.26 in SSW 0.3 mph 5.8 mph 51 % 0.00 in 594.0 W/m2 CLR
11:06 42.8 °F 26.4 °F 30.26 in Calm     52 % 0.00 in 255.0 W/m2 BKN
11:11 42.5 °F 25.6 °F 30.26 in Calm     51 % 0.00 in 352.0 W/m2 SCT
11:16 43.3 °F 26.4 °F 30.26 in Calm     51 % 0.00 in 728.0 W/m2 SCT
11:21 44.0 °F 26.5 °F 30.25 in West 0.4 mph 3.5 mph 50 % 0.00 in 316.0 W/m2 BKN
11:26 43.6 °F 26.6 °F 30.25 in Calm     51 % 0.00 in 371.0 W/m2 SCT
11:31 44.4 °F 26.4 °F 30.25 in WNW 0.5 mph 2.3 mph 49 % 0.00 in 411.0 W/m2 FEW
11:36 44.2 °F 26.2 °F 30.25 in West 2.2 mph 5.8 mph 49 % 0.00 in 369.0 W/m2 SCT
11:41 43.9 °F 26.0 °F 30.25 in Calm     49 % 0.00 in 346.0 W/m2 SCT
11:46 44.1 °F 25.6 °F 30.25 in Calm     48 % 0.00 in 264.0 W/m2 BKN
11:51 44.1 °F 26.1 °F 30.25 in WNW 2.4 mph 3.5 mph 49 % 0.00 in 244.0 W/m2 BKN
11:56 44.0 °F 26.0 °F 30.25 in Calm   3.5 mph 49 % 0.00 in 294.0 W/m2 BKN
12:01 43.8 °F 26.3 °F 30.24 in Calm     50 % 0.00 in 232.0 W/m2 BKN
12:06 44.4 °F 26.9 °F 30.24 in Calm     50 % 0.00 in 257.0 W/m2 BKN
12:11 44.3 °F 26.3 °F 30.25 in West 0.6 mph 3.0 mph 49 % 0.00 in 334.0 W/m2 BKN
12:16 44.6 °F 26.6 °F 30.24 in WSW 0.4 mph 3.5 mph 49 % 0.00 in 357.0 W/m2 SCT
12:21 44.8 °F 26.8 °F 30.24 in SW 0.4 mph 3.5 mph 49 % 0.00 in 253.0 W/m2 BKN
12:26 44.9 °F 26.4 °F 30.24 in SW 0.5 mph 2.3 mph 48 % 0.00 in 246.0 W/m2 BKN
12:31 44.3 °F 26.3 °F 30.24 in Calm     49 % 0.00 in 271.0 W/m2 BKN
12:36 44.8 °F 26.8 °F 30.23 in Calm     49 % 0.00 in 323.0 W/m2 BKN
12:41 44.9 °F 27.4 °F 30.23 in SW 0.2 mph 3.5 mph 50 % 0.00 in 434.0 W/m2 SCT
12:47 45.2 °F 28.1 °F 30.23 in SW 0.7 mph 2.3 mph 51 % 0.00 in 598.0 W/m2 FEW
12:52 45.6 °F 28.0 °F 30.22 in SW 2.9 mph 9.2 mph 50 % 0.00 in 475.0 W/m2 FEW
12:57 45.3 °F 27.7 °F 30.22 in WSW 2.8 mph 3.5 mph 50 % 0.00 in 329.0 W/m2 SCT
13:02 45.4 °F 27.8 °F 30.23 in SW 4.8 mph 8.1 mph 50 % 0.00 in 274.0 W/m2 BKN
13:07 45.3 °F 27.7 °F 30.23 in SW 4.2 mph 8.1 mph 50 % 0.00 in 202.0 W/m2 BKN
13:12 45.3 °F 27.7 °F 30.23 in SW 3.3 mph 6.9 mph 50 % 0.00 in 195.0 W/m2 OVC
13:17 45.0 °F 27.5 °F 30.22 in Calm   3.5 mph 50 % 0.00 in 148.0 W/m2 OVC
13:21 44.8 °F 27.8 °F 30.22 in West 3.4 mph 3.5 mph 51 % 0.00 in 139.0 W/m2 OVC
13:27 44.8 °F 27.8 °F 30.22 in West 3.3 mph 6.9 mph 51 % 0.00 in 118.0 W/m2 OVC
13:31 44.7 °F 27.7 °F 30.22 in WSW 3.0 mph 5.0 mph 51 % 0.00 in 100.0 W/m2 OVC
13:37 44.6 °F 27.1 °F 30.22 in WSW 4.2 mph 4.6 mph 50 % 0.00 in 97.0 W/m2 OVC
13:42 44.7 °F 27.7 °F 30.22 in WSW 0.8 mph 3.0 mph 51 % 0.00 in 90.0 W/m2 OVC
13:47 44.5 °F 27.5 °F 30.23 in WSW 2.0 mph 2.3 mph 51 % 0.00 in 84.0 W/m2 OVC
13:52 44.5 °F 27.5 °F 30.22 in SSW 2.1 mph 3.5 mph 51 % 0.00 in 90.0 W/m2 OVC
13:57 44.4 °F 27.4 °F 30.21 in SW 0.2 mph 3.5 mph 51 % 0.00 in 120.0 W/m2 OVC
14:02 44.4 °F 27.4 °F 30.21 in WSW 2.5 mph 3.5 mph 51 % 0.00 in 162.0 W/m2 OVC
14:07 44.5 °F 27.5 °F 30.21 in Calm     51 % 0.00 in 149.0 W/m2 OVC
14:12 44.5 °F 27.0 °F 30.21 in Calm     50 % 0.00 in 153.0 W/m2 OVC
14:17 44.6 °F 27.1 °F 30.21 in Calm     50 % 0.00 in 139.0 W/m2 OVC
14:22 44.3 °F 26.8 °F 30.21 in Calm     50 % 0.00 in 132.0 W/m2 OVC
14:27 44.3 °F 26.8 °F 30.21 in Calm     50 % 0.00 in 79.0 W/m2 OVC
14:32 44.3 °F 27.3 °F 30.21 in Calm     51 % 0.00 in 84.0 W/m2 OVC
14:37 44.3 °F 26.8 °F 30.21 in Calm     50 % 0.00 in 90.0 W/m2 OVC
14:42 44.3 °F 27.3 °F 30.21 in Calm     51 % 0.00 in 77.0 W/m2 OVC
14:47 44.5 °F 27.5 °F 30.21 in Calm     51 % 0.00 in 79.0 W/m2 OVC
14:52 44.4 °F 26.9 °F 30.20 in Calm     50 % 0.00 in 90.0 W/m2 OVC
14:57 44.2 °F 26.7 °F 30.20 in Calm     50 % 0.00 in 148.0 W/m2 OVC
15:02 44.5 °F 28.0 °F 30.19 in Calm     52 % 0.00 in 246.0 W/m2 BKN
15:07 45.2 °F 28.6 °F 30.19 in Calm     52 % 0.00 in 237.0 W/m2 BKN
15:12 45.0 °F 27.5 °F 30.18 in Calm     50 % 0.00 in 313.0 W/m2 BKN
15:17 45.2 °F 29.1 °F 30.18 in Calm     53 % 0.00 in 260.0 W/m2 BKN
15:19 45.1 °F 27.6 °F 30.18 in SSW 0.4 mph 2.3 mph 50 % 0.00 in 260.0 W/m2 BKN
15:24 45.0 °F 27.5 °F 30.17 in Calm     50 % 0.00 in 271.0 W/m2 BKN
15:29 45.2 °F 28.1 °F 30.17 in Calm     51 % 0.00 in 311.0 W/m2 BKN
15:34 45.3 °F 28.2 °F 30.17 in Calm     51 % 0.00 in 311.0 W/m2 SCT
15:39 45.2 °F 27.2 °F 30.17 in South 1.4 mph 3.5 mph 49 % 0.00 in 255.0 W/m2 BKN
15:44 45.2 °F 26.7 °F 30.17 in Calm   1.2 mph 48 % 0.00 in 241.0 W/m2 BKN
15:49 45.5 °F 26.9 °F 30.17 in South 0.7 mph 2.3 mph 48 % 0.00 in 223.0 W/m2 BKN
15:54 45.4 °F 26.8 °F 30.17 in Calm     48 % 0.00 in 209.0 W/m2 BKN
15:59 45.1 °F 27.1 °F 30.17 in Calm     49 % 0.00 in 195.0 W/m2 BKN
16:04 45.3 °F 27.7 °F 30.17 in Calm     50 % 0.00 in 218.0 W/m2 BKN
16:09 45.4 °F 26.8 °F 30.17 in Calm     48 % 0.00 in 195.0 W/m2 BKN
16:14 45.6 °F 27.0 °F 30.17 in Calm     48 % 0.00 in 172.0 W/m2 BKN
16:19 45.6 °F 28.0 °F 30.17 in South 0.1 mph 1.0 mph 50 % 0.00 in 137.0 W/m2 OVC
16:24 45.6 °F 27.0 °F 30.16 in Calm     48 % 0.00 in 137.0 W/m2 BKN
16:29 45.7 °F 27.6 °F 30.16 in SSW 2.6 mph 3.5 mph 49 % 0.00 in 127.0 W/m2 OVC
16:34 45.9 °F 27.8 °F 30.16 in Calm     49 % 0.00 in 109.0 W/m2 OVC
16:39 45.8 °F 27.7 °F 30.15 in Calm     49 % 0.00 in 105.0 W/m2 OVC
16:44 45.7 °F 28.1 °F 30.15 in Calm     50 % 0.00 in 105.0 W/m2 OVC
16:49 45.6 °F 28.0 °F 30.15 in SSE 0.4 mph 4.0 mph 50 % 0.00 in 102.0 W/m2 OVC
16:54 46.0 °F 28.4 °F 30.14 in Calm     50 % 0.00 in 81.0 W/m2 OVC
16:59 46.0 °F 28.4 °F 30.15 in Calm     50 % 0.00 in 60.0 W/m2 OVC
17:04 45.9 °F 28.3 °F 30.14 in SSE 0.7 mph 3.5 mph 50 % 0.00 in 56.0 W/m2 OVC
17:09 45.9 °F 28.3 °F 30.14 in SSE 0.5 mph 3.5 mph 50 % 0.00 in 56.0 W/m2 OVC
17:14 45.9 °F 28.3 °F 30.15 in South 1.2 mph 2.0 mph 50 % 0.00 in 51.0 W/m2 OVC
17:19 46.0 °F 28.9 °F 30.15 in South 0.5 mph   51 % 0.00 in 40.0 W/m2 OVC
17:24 46.0 °F 28.4 °F 30.15 in Calm     50 % 0.00 in 33.0 W/m2 OVC
17:29 45.7 °F 28.6 °F 30.15 in Calm     51 % 0.00 in 37.0 W/m2 OVC
17:34 45.8 °F 28.7 °F 30.15 in Calm     51 % 0.00 in 30.0 W/m2 OVC
17:39 45.7 °F 28.6 °F 30.14 in Calm     51 % 0.00 in 35.0 W/m2 OVC
17:44 45.8 °F 28.7 °F 30.13 in SSE 0.2 mph 1.2 mph 51 % 0.00 in 58.0 W/m2 OVC
17:49 45.7 °F 28.6 °F 30.11 in SE 0.3 mph 2.3 mph 51 % 0.00 in 86.0 W/m2 BKN
17:54 46.0 °F 29.3 °F 30.11 in Calm     52 % 0.00 in 67.0 W/m2 BKN
17:59 46.1 °F 29.4 °F 30.12 in Calm     52 % 0.00 in 60.0 W/m2 BKN
18:04 45.9 °F 28.8 °F 30.13 in Calm     51 % 0.00 in 40.0 W/m2 OVC
18:09 46.0 °F 28.9 °F 30.14 in Calm     51 % 0.00 in 28.0 W/m2 OVC
18:14 46.1 °F 29.0 °F 30.14 in Calm     51 % 0.00 in 26.0 W/m2 OVC
18:19 46.0 °F 28.4 °F 30.13 in Calm   1.0 mph 50 % 0.00 in 26.0 W/m2 OVC
18:24 45.8 °F 28.7 °F 30.12 in SE 0.4 mph 3.5 mph 51 % 0.00 in 28.0 W/m2 OVC
18:29 45.8 °F 28.7 °F 30.13 in Calm     51 % 0.00 in 16.0 W/m2 OVC
18:34 45.8 °F 28.7 °F 30.14 in Calm     51 % 0.00 in 11.0 W/m2 OVC
18:39 45.8 °F 28.7 °F 30.14 in Calm     51 % 0.00 in 9.0 W/m2 OVC
18:44 45.8 °F 28.7 °F 30.14 in Calm     51 % 0.00 in 5.0 W/m2 OVC
18:49 45.8 °F 28.7 °F 30.14 in Calm     51 % 0.00 in 5.0 W/m2 OVC
18:54 45.8 °F 28.7 °F 30.15 in Calm     51 % 0.00 in 0.0 W/m2 OVC
18:59 45.8 °F 28.7 °F 30.14 in Calm     51 % 0.00 in 5.0 W/m2 OVC
19:04 45.8 °F 29.2 °F 30.13 in Calm     52 % 0.00 in 5.0 W/m2 OVC
19:09 45.8 °F 29.2 °F 30.12 in Calm     52 % 0.00 in 5.0 W/m2 OVC
19:14 45.8 °F 29.2 °F 30.12 in Calm     52 % 0.00 in 0.0 W/m2 OVC
19:19 45.8 °F 29.2 °F 30.12 in SE 0.1 mph 2.0 mph 52 % 0.00 in 0.0 W/m2 OVC
19:24 45.8 °F 28.7 °F 30.13 in Calm   1.2 mph 51 % 0.00 in 0.0 W/m2 CLR
19:29 45.8 °F 28.7 °F 30.13 in SSE 0.2 mph   51 % 0.00 in 0.0 W/m2 CLR
19:34 45.9 °F 28.8 °F 30.14 in Calm     51 % 0.00 in 0.0 W/m2 CLR
19:39 45.9 °F 28.8 °F 30.14 in Calm     51 % 0.00 in 0.0 W/m2 CLR
19:44 45.8 °F 29.2 °F 30.13 in Calm     52 % 0.00 in 0.0 W/m2 CLR
19:49 45.8 °F 29.2 °F 30.12 in Calm     52 % 0.00 in 0.0 W/m2 CLR
19:55 45.8 °F 28.7 °F 30.12 in Calm     51 % 0.00 in 0.0 W/m2 CLR
20:05 45.7 °F 29.1 °F 30.12 in SSE 0.3 mph 2.0 mph 52 % 0.00 in 0.0 W/m2 CLR
20:10 45.7 °F 29.1 °F 30.12 in Calm     52 % 0.00 in 0.0 W/m2 CLR
20:15 45.6 °F 29.0 °F 30.12 in Calm     52 % 0.00 in 0.0 W/m2 CLR
20:20 45.6 °F 29.4 °F 30.12 in SSE 0.2 mph 1.2 mph 53 % 0.00 in 0.0 W/m2 CLR
20:25 45.5 °F 29.3 °F 30.12 in SSE 0.2 mph   53 % 0.00 in 0.0 W/m2 CLR
20:30 45.5 °F 29.3 °F 30.12 in SE 0.4 mph 2.3 mph 53 % 0.00 in 0.0 W/m2 CLR
20:35 45.5 °F 29.3 °F 30.13 in SSE 0.1 mph 1.2 mph 53 % 0.00 in 0.0 W/m2 CLR
20:40 45.4 °F 29.7 °F 30.12 in Calm     54 % 0.00 in 0.0 W/m2 CLR
20:45 45.4 °F 29.7 °F 30.12 in SSE 0.1 mph 1.2 mph 54 % 0.00 in 0.0 W/m2 CLR
20:50 45.4 °F 29.7 °F 30.13 in Calm     54 % 0.00 in 0.0 W/m2 CLR
20:55 45.4 °F 29.7 °F 30.14 in Calm     54 % 0.00 in 0.0 W/m2 CLR
21:00 45.3 °F 29.6 °F 30.14 in Calm     54 % 0.00 in 0.0 W/m2 CLR
21:05 45.3 °F 30.1 °F 30.14 in Calm     55 % 0.00 in 0.0 W/m2 CLR
21:10 45.2 °F 30.4 °F 30.12 in Calm     56 % 0.00 in 0.0 W/m2 CLR
21:15 44.9 °F 31.4 °F 30.10 in ESE 2.4 mph 5.0 mph 59 % 0.00 in 0.0 W/m2 CLR
21:20 44.1 °F 32.3 °F 30.10 in SE 0.8 mph 3.5 mph 63 % 0.02 in 0.0 W/m2 RA
21:25 43.6 °F 33.4 °F 30.09 in Calm     67 % 0.03 in 0.0 W/m2 RA
21:30 43.0 °F 33.9 °F 30.10 in Calm   1.2 mph 70 % 0.04 in 0.0 W/m2 RA
21:35 42.5 °F 34.1 °F 30.11 in Calm     72 % 0.06 in 0.0 W/m2 RA
21:40 42.1 °F 34.1 °F 30.11 in Calm     73 % 0.06 in 0.0 W/m2 RA
21:45 42.0 °F 34.6 °F 30.11 in Calm     75 % 0.07 in 0.0 W/m2 RA
21:50 41.7 °F 34.7 °F 30.12 in Calm     76 % 0.07 in 0.0 W/m2 RA
21:55 41.7 °F 35.3 °F 30.12 in Calm     78 % 0.08 in 0.0 W/m2 RA
22:00 41.4 °F 35.4 °F 30.12 in Calm     79 % 0.08 in 0.0 W/m2 RA
22:05 41.4 °F 35.7 °F 30.12 in Calm     80 % 0.08 in 0.0 W/m2
22:10 41.4 °F 36.0 °F 30.11 in Calm     81 % 0.08 in 0.0 W/m2 CLR
22:15 41.3 °F 35.6 °F 30.11 in Calm     80 % 0.08 in 0.0 W/m2 CLR
22:20 41.4 °F 36.0 °F 30.12 in South 0.4 mph 2.3 mph 81 % 0.06 in 0.0 W/m2 CLR
22:25 41.3 °F 35.9 °F 30.11 in Calm     81 % 0.05 in 0.0 W/m2 CLR
22:30 41.2 °F 35.8 °F 30.11 in Calm     81 % 0.04 in 0.0 W/m2 CLR
22:35 41.1 °F 35.7 °F 30.11 in Calm     81 % 0.02 in 0.0 W/m2 CLR
22:40 41.0 °F 35.6 °F 30.11 in Calm     81 % 0.02 in 0.0 W/m2 CLR
22:45 41.0 °F 35.9 °F 30.11 in Calm     82 % 0.01 in 0.0 W/m2 CLR
22:50 41.0 °F 35.9 °F 30.11 in Calm     82 % 0.01 in 0.0 W/m2 CLR
22:55 40.9 °F 35.8 °F 30.11 in Calm     82 % 0.00 in 0.0 W/m2 CLR
23:00 41.0 °F 36.2 °F 30.11 in Calm     83 % 0.00 in 0.0 W/m2 CLR
23:05 40.7 °F 36.2 °F 30.11 in Calm     84 % 0.01 in 0.0 W/m2 RA
23:10 40.6 °F 36.1 °F 30.11 in NE 0.4 mph 2.3 mph 84 % 0.02 in 0.0 W/m2 RA
23:15 40.5 °F 36.3 °F 30.11 in Calm     85 % 0.02 in 0.0 W/m2 RA
23:20 40.3 °F 36.1 °F 30.12 in Calm   1.2 mph 85 % 0.04 in 0.0 W/m2 RA
23:25 40.1 °F 36.2 °F 30.11 in NE 0.2 mph   86 % 0.06 in 0.0 W/m2 RA
23:30 40.0 °F 36.2 °F 30.11 in ENE 0.5 mph 2.3 mph 86 % 0.06 in 0.0 W/m2 RA
23:35 40.0 °F 36.4 °F 30.11 in Calm     87 % 0.06 in 0.0 W/m2
23:40 39.9 °F 36.3 °F 30.12 in East 0.3 mph 2.3 mph 87 % 0.06 in 0.0 W/m2 CLR
23:45 39.9 °F 36.3 °F 30.11 in East 0.1 mph 2.3 mph 87 % 0.06 in 0.0 W/m2 CLR
23:50 39.8 °F 36.5 °F 30.10 in Calm     88 % 0.06 in 0.0 W/m2 CLR
23:55 40.0 °F 36.7 °F 30.11 in SE 1.1 mph 3.5 mph 88 % 0.06 in 0.0 W/m2 CLR
Air Products Campus Weather
Compliments of Weather Underground - 3.5 mb